Time;durP1;ratioP1;P1;durP2;ratioP2;P2;SDS_P1;SDS_P2;PMS_P1;PMS_P2;Temp;Humidity;BMP_temperature;BMP_pressure;BME280_temperature;BME280_humidity;BME280_pressure;Samples;Min_cycle;Max_cycle;Signal;HPM_P1;HPM_P2
2023/06/02 00:01:00;;;;;;;11.35;5.20;;;;;;;14.71;73.29;93848.63;5144223;27;20022;-78
2023/06/02 00:03:33;;;;;;;11.82;4.43;;;;;;;14.73;72.55;93831.06;5144028;27;20039;-77
2023/06/02 00:06:00;;;;;;;8.88;4.07;;;;;;;14.77;72.33;93837.31;5144268;27;20030;-77
2023/06/02 00:08:26;;;;;;;13.45;4.72;;;;;;;14.77;71.76;93847.28;5143323;27;20031;-78
2023/06/02 00:10:52;;;;;;;7.75;4.47;;;;;;;14.79;71.87;93842.38;5125422;27;20026;-77
2023/06/02 00:13:17;;;;;;;8.80;4.15;;;;;;;14.86;71.99;93853.31;5125602;27;20023;-78
2023/06/02 00:15:43;;;;;;;10.75;4.32;;;;;;;14.89;71.58;93839.19;5143767;27;20051;-78
2023/06/02 00:18:08;;;;;;;13.73;4.22;;;;;;;14.91;71.21;93842.31;5143814;27;20145;-78
2023/06/02 00:20:34;;;;;;;7.38;4.47;;;;;;;14.94;71.07;93841.66;5143680;27;20026;-78
2023/06/02 00:23:02;;;;;;;6.93;3.63;;;;;;;14.93;71.21;93833.94;5143793;27;20046;-77
2023/06/02 00:25:29;;;;;;;17.17;4.93;;;;;;;14.97;71.79;93835.59;5125426;28;20027;-77
2023/06/02 00:27:54;;;;;;;11.43;4.65;;;;;;;15.00;71.95;93847.53;5125464;28;20019;-77
2023/06/02 00:30:20;;;;;;;8.88;4.32;;;;;;;15.04;71.97;93838.50;5143521;27;20307;-77
2023/06/02 00:32:45;;;;;;;10.80;4.30;;;;;;;15.08;72.40;93840.47;5143585;28;20329;-77
2023/06/02 00:35:11;;;;;;;10.27;4.57;;;;;;;15.08;72.33;93843.16;5143682;28;20019;-77
2023/06/02 00:37:36;;;;;;;14.75;4.50;;;;;;;15.09;72.23;93836.69;5143481;28;20027;-77
2023/06/02 00:40:03;;;;;;;13.75;4.90;;;;;;;15.10;72.36;93835.53;5143693;28;20318;-77
2023/06/02 00:42:29;;;;;;;12.38;5.13;;;;;;;15.07;72.65;93839.69;5143609;28;20023;-77
2023/06/02 00:44:54;;;;;;;11.88;4.70;;;;;;;15.08;72.72;93840.47;5143543;28;20026;-78
2023/06/02 00:47:20;;;;;;;18.75;5.38;;;;;;;15.08;72.81;93829.75;5143707;28;20333;-78
2023/06/02 00:49:45;;;;;;;8.45;4.85;;;;;;;15.04;72.96;93830.44;5143583;28;20343;-78
2023/06/02 00:52:14;;;;;;;8.98;4.03;;;;;;;15.08;73.14;93833.19;5143618;28;20019;-77
2023/06/02 00:54:40;;;;;;;7.88;4.65;;;;;;;15.06;73.29;93830.06;5143461;28;20027;-77
2023/06/02 00:57:06;;;;;;;12.80;5.22;;;;;;;15.11;73.03;93834.44;5143475;28;20035;-78
2023/06/02 00:59:32;;;;;;;9.60;4.13;;;;;;;15.11;72.80;93823.69;5143621;28;20023;-78
2023/06/02 01:01:57;;;;;;;10.20;4.32;;;;;;;15.08;73.09;93827.84;5143597;28;20023;-78
2023/06/02 01:04:23;;;;;;;7.85;4.93;;;;;;;15.04;73.28;93818.91;5143507;28;20076;-78
2023/06/02 01:06:49;;;;;;;8.90;4.15;;;;;;;15.04;73.44;93818.91;5143186;28;20015;-78
2023/06/02 01:09:16;;;;;;;9.93;5.03;;;;;;;15.05;73.89;93812.41;5143664;28;20053;-79
2023/06/02 01:11:48;;;;;;;10.27;4.88;;;;;;;15.05;74.02;93815.09;5143421;28;20086;-78
2023/06/02 01:14:14;;;;;;;6.22;4.30;;;;;;;15.07;74.26;93812.09;5143491;28;20019;-78
2023/06/02 01:16:40;;;;;;;9.32;4.90;;;;;;;15.02;73.98;93816.56;5143580;28;20019;-78
2023/06/02 01:19:13;;;;;;;8.93;5.00;;;;;;;15.01;73.59;93812.31;5126815;27;20019;-77
2023/06/02 01:21:39;;;;;;;10.90;5.00;;;;;;;15.00;73.48;93809.97;5147044;27;20031;-77
2023/06/02 01:24:06;;;;;;;8.68;4.05;;;;;;;14.98;73.35;93814.91;5147029;27;20711;-76
2023/06/02 01:26:34;;;;;;;11.02;5.20;;;;;;;14.98;73.46;93809.53;5128972;27;20027;-76
2023/06/02 01:29:00;;;;;;;15.90;4.60;;;;;;;14.94;74.02;93803.28;5147130;27;20019;-76
2023/06/02 01:31:31;;;;;;;8.65;4.53;;;;;;;14.93;74.02;93801.75;5146878;27;20018;-76
2023/06/02 01:34:10;;;;;;;17.00;4.65;;;;;;;14.94;74.21;93801.41;5146987;27;20049;-76
2023/06/02 01:36:39;;;;;;;12.13;4.90;;;;;;;14.95;75.12;93797.59;5128440;27;20314;-76
2023/06/02 01:39:08;;;;;;;16.27;5.20;;;;;;;14.96;75.14;93801.03;5146852;27;20191;-76
2023/06/02 01:41:35;;;;;;;8.63;4.63;;;;;;;14.95;75.19;93802.94;5146771;27;20091;-76
2023/06/02 01:44:02;;;;;;;11.98;4.78;;;;;;;14.96;74.79;93799.16;5146736;27;20019;-76
2023/06/02 01:46:28;;;;;;;7.95;4.55;;;;;;;14.94;74.80;93798.72;5146805;27;20042;-76
2023/06/02 01:48:55;;;;;;;11.55;4.38;;;;;;;14.96;74.31;93796.47;5146687;27;20366;-77
2023/06/02 01:51:21;;;;;;;12.43;4.93;;;;;;;14.97;75.07;93795.34;5146472;27;20023;-78
2023/06/02 01:53:46;;;;;;;9.75;4.30;;;;;;;14.97;74.90;93789.97;5146492;27;20034;-77
2023/06/02 01:56:12;;;;;;;8.40;4.07;;;;;;;14.98;74.58;93796.13;5146336;27;20035;-78
2023/06/02 01:58:38;;;;;;;10.20;4.00;;;;;;;15.00;74.19;93797.34;5128359;27;20086;-78
2023/06/02 02:01:03;;;;;;;8.98;4.00;;;;;;;14.99;73.77;93795.78;5146333;27;20040;-79
2023/06/02 02:03:30;;;;;;;6.93;4.47;;;;;;;15.00;72.37;93804.59;5146672;27;20038;-78
2023/06/02 02:05:56;;;;;;;9.70;4.63;;;;;;;14.96;72.78;93796.47;5146203;27;20239;-79
2023/06/02 02:08:21;;;;;;;9.32;4.85;;;;;;;14.93;72.41;93797.16;5146329;27;20019;-78
2023/06/02 02:10:47;;;;;;;8.38;4.40;;;;;;;14.90;72.27;93795.16;5146091;27;20063;-78
2023/06/02 02:13:13;;;;;;;9.57;4.32;;;;;;;14.88;71.73;93789.34;5146224;27;20316;-78
2023/06/02 02:15:38;;;;;;;12.60;4.78;;;;;;;14.87;71.34;93801.19;5146015;27;20094;-79
2023/06/02 02:18:04;;;;;;;9.00;4.55;;;;;;;14.87;71.08;93803.88;5145834;27;20107;-78
2023/06/02 02:20:30;;;;;;;7.78;4.70;;;;;;;14.87;70.86;93795.81;5146188;27;20019;-78
2023/06/02 02:22:55;;;;;;;10.05;4.57;;;;;;;14.90;71.15;93803.22;5145858;27;20218;-78
2023/06/02 02:25:21;;;;;;;10.88;3.88;;;;;;;14.93;71.54;93791.00;5145977;27;20201;-78
2023/06/02 02:27:46;;;;;;;11.80;4.35;;;;;;;14.94;72.22;93793.34;5146018;27;20068;-78
2023/06/02 02:30:12;;;;;;;13.15;4.20;;;;;;;14.98;72.92;93788.88;5145141;27;20063;-79
2023/06/02 02:32:44;;;;;;;10.27;4.28;;;;;;;14.95;73.38;93789.53;5145596;27;20030;-79
2023/06/02 02:35:09;;;;;;;;;;;;;;;14.94;73.88;93784.50;5146260;27;20019;-80
2023/06/02 02:37:36;;;;;;;9.90;4.78;;;;;;;14.90;74.39;93786.31;5126145;27;19907;-79
2023/06/02 02:40:02;;;;;;;14.57;4.80;;;;;;;14.90;74.78;93784.44;5144962;27;20218;-78
2023/06/02 02:42:28;;;;;;;16.58;4.35;;;;;;;14.89;74.27;93785.53;5144639;27;20022;-78
2023/06/02 02:44:53;;;;;;;11.23;4.85;;;;;;;14.90;74.06;93784.44;5126567;27;20056;-78
2023/06/02 02:47:20;;;;;;;8.57;4.60;;;;;;;14.93;74.55;93791.78;5145220;27;20027;-78
2023/06/02 02:49:46;;;;;;;17.63;4.75;;;;;;;14.92;74.82;93784.06;5127043;27;20309;-78
2023/06/02 02:52:12;;;;;;;11.15;4.93;;;;;;;14.90;75.17;93786.31;5127001;27;20077;-78
2023/06/02 02:54:38;;;;;;;9.40;5.38;;;;;;;14.90;75.09;93781.75;5145293;27;20025;-78
2023/06/02 02:57:04;;;;;;;9.88;4.72;;;;;;;14.90;75.07;93789.00;5145391;27;20038;-78
2023/06/02 02:59:31;;;;;;;11.00;4.55;;;;;;;14.88;75.13;93783.19;5145276;27;20063;-78
2023/06/02 03:01:57;;;;;;;11.40;4.63;;;;;;;14.83;74.26;93787.66;5145313;27;20040;-78
2023/06/02 03:04:22;;;;;;;17.73;4.85;;;;;;;14.79;74.21;93786.78;5145068;27;20019;-78
2023/06/02 03:06:53;;;;;;;8.88;4.38;;;;;;;14.77;73.56;93799.75;5145168;27;20018;-78
2023/06/02 03:09:19;;;;;;;12.38;4.10;;;;;;;14.79;73.23;93780.66;5145135;27;20082;-78
2023/06/02 03:11:45;;;;;;;10.98;4.82;;;;;;;14.79;73.00;93786.78;5145063;27;20047;-78
2023/06/02 03:14:11;;;;;;;20.27;5.20;;;;;;;14.83;73.97;93792.25;5144832;27;20023;-78
2023/06/02 03:16:40;;;;;;;14.60;4.70;;;;;;;14.87;74.54;93797.72;5144885;27;20364;-78
2023/06/02 03:19:06;;;;;;;12.60;5.20;;;;;;;14.88;73.80;93789.34;5144694;27;20027;-78
2023/06/02 03:21:33;;;;;;;14.50;8.38;;;;;;;14.90;73.82;93786.31;5144989;27;20064;-78
2023/06/02 03:23:59;;;;;;;9.95;4.82;;;;;;;14.93;74.58;93791.78;5144637;27;20047;-78
2023/06/02 03:26:26;;;;;;;11.23;5.25;;;;;;;14.96;74.51;93793.00;5144582;27;20290;-78
2023/06/02 03:28:54;;;;;;;7.55;4.10;;;;;;;14.98;72.93;93793.44;5144732;27;20026;-78
2023/06/02 03:31:20;;;;;;;11.30;5.28;;;;;;;14.98;72.49;93793.44;5144471;27;20040;-78
2023/06/02 03:33:46;;;;;;;14.63;5.75;;;;;;;14.98;72.51;93798.78;5126181;27;20027;-79
2023/06/02 03:36:12;;;;;;;8.27;4.70;;;;;;;14.98;72.79;93788.88;5144558;27;20147;-78
2023/06/02 03:38:37;;;;;;;10.73;5.47;;;;;;;15.01;72.90;93796.22;5144376;27;20316;-78
2023/06/02 03:41:03;;;;;;;10.07;4.80;;;;;;;15.07;73.61;93790.63;5144372;27;20019;-77
2023/06/02 03:43:29;;;;;;;8.48;5.10;;;;;;;15.10;73.55;93785.34;5143326;27;20023;-78
2023/06/02 03:45:54;;;;;;;13.90;5.50;;;;;;;15.15;73.95;93793.13;5144405;27;20046;-78
2023/06/02 03:48:20;;;;;;;13.60;5.22;;;;;;;15.19;73.59;93791.31;5144270;27;20052;-77
2023/06/02 03:50:45;;;;;;;15.70;5.95;;;;;;;15.25;73.78;93781.13;5144218;27;20106;-76
2023/06/02 03:53:11;;;;;;;14.10;5.85;;;;;;;15.31;73.78;93787.03;5144139;27;20369;-76
2023/06/02 03:55:36;;;;;;;16.73;6.22;;;;;;;15.33;73.62;93788.25;5143938;27;20248;-78
2023/06/02 03:58:01;;;;;;;18.30;6.88;;;;;;;15.39;73.72;93786.09;5143963;27;20074;-78
2023/06/02 04:00:27;;;;;;;14.57;6.75;;;;;;;15.42;73.86;93783.47;5144121;27;20019;-78
2023/06/02 04:02:53;;;;;;;18.77;6.97;;;;;;;15.48;73.38;93783.22;5144136;27;20067;-78
2023/06/02 04:05:18;;;;;;;12.32;6.38;;;;;;;15.54;72.84;93776.47;5125576;27;20079;-78
2023/06/02 04:07:44;;;;;;;16.92;6.20;;;;;;;15.59;72.38;93773.53;5125402;27;20030;-78
2023/06/02 04:10:10;;;;;;;9.00;5.47;;;;;;;15.66;71.60;93779.09;5143931;27;20098;-78
2023/06/02 04:12:35;;;;;;;12.48;6.18;;;;;;;15.72;70.96;93768.84;5143767;27;20029;-78
2023/06/02 04:15:01;;;;;;;14.35;6.20;;;;;;;15.77;70.76;93774.78;5143878;27;20086;-78
2023/06/02 04:17:26;;;;;;;9.02;6.47;;;;;;;15.84;70.98;93771.47;5125542;27;20030;-78
2023/06/02 04:19:55;;;;;;;9.18;6.25;;;;;;;15.90;71.12;93775.47;5143895;27;20031;-78
2023/06/02 04:22:21;;;;;;;14.77;6.57;;;;;;;15.98;71.12;93773.72;5143649;27;20023;-78
2023/06/02 04:24:47;;;;;;;24.70;8.25;;;;;;;15.98;71.02;93779.09;5125161;27;20026;-77
2023/06/02 04:27:14;;;;;;;12.68;6.95;;;;;;;15.99;71.71;93775.28;5144292;27;20030;-78
2023/06/02 04:29:40;;;;;;;21.20;7.43;;;;;;;15.97;71.42;93770.25;5143784;27;20056;-78
2023/06/02 04:32:06;;;;;;;18.85;6.55;;;;;;;16.00;70.60;93771.47;5143604;27;20215;-75
2023/06/02 04:34:32;;;;;;;15.02;7.57;;;;;;;16.01;70.74;93765.72;5125299;28;20019;-76
2023/06/02 04:36:58;;;;;;;16.75;9.48;;;;;;;16.04;70.08;93767.72;5143578;28;20325;-76
2023/06/02 04:39:24;;;;;;;19.50;8.15;;;;;;;16.08;70.53;93767.81;5143436;28;20057;-76
2023/06/02 04:41:49;;;;;;;20.48;9.13;;;;;;;16.15;70.68;93767.19;5143383;28;20046;-76
2023/06/02 04:44:16;;;;;;;15.85;7.97;;;;;;;16.21;71.37;93771.94;5143346;28;20015;-76
2023/06/02 04:46:43;;;;;;;18.90;6.88;;;;;;;16.20;72.02;93783.84;5143566;28;20068;-76
2023/06/02 04:49:09;;;;;;;10.05;5.53;;;;;;;16.22;71.04;93773.50;5143557;28;20186;-77
2023/06/02 04:51:35;;;;;;;15.82;7.50;;;;;;;16.28;70.63;93781.28;5143427;28;20015;-78
2023/06/02 04:54:00;;;;;;;16.35;6.55;;;;;;;16.30;70.76;93774.44;5145250;27;20038;-76
2023/06/02 04:56:27;;;;;;;11.25;6.50;;;;;;;16.34;71.21;93777.97;5147626;27;20320;-77
2023/06/02 04:58:53;;;;;;;17.30;7.47;;;;;;;16.27;70.95;93790.50;5147578;27;20027;-77
2023/06/02 05:01:18;;;;;;;18.58;7.07;;;;;;;16.25;71.71;93783.56;5147462;27;20271;-77
2023/06/02 05:03:44;;;;;;;19.92;8.23;;;;;;;16.27;72.52;93796.66;5128843;27;20059;-76
2023/06/02 05:06:09;;;;;;;16.23;7.50;;;;;;;16.24;71.84;93789.28;5147541;27;20035;-76
2023/06/02 05:08:35;;;;;;;17.98;7.03;;;;;;;16.23;71.33;93809.25;5147253;27;20340;-76
2023/06/02 05:11:01;;;;;;;18.55;7.35;;;;;;;16.18;70.58;93796.84;5147349;27;20015;-75
2023/06/02 05:13:28;;;;;;;12.95;6.57;;;;;;;16.21;70.79;93801.53;5146942;27;20026;-76
2023/06/02 05:15:55;;;;;;;15.15;7.25;;;;;;;16.17;71.46;93797.97;5146994;27;20069;-76
2023/06/02 05:18:21;;;;;;;21.75;7.60;;;;;;;16.19;71.05;93793.03;5147078;27;20034;-78
2023/06/02 05:20:47;;;;;;;14.48;7.88;;;;;;;16.30;71.59;93795.94;5147311;27;20027;-79
2023/06/02 05:23:12;;;;;;;14.60;7.65;;;;;;;16.33;70.95;93797.16;5146919;27;20073;-80
2023/06/02 05:25:39;;;;;;;23.17;7.90;;;;;;;16.46;71.39;93809.38;5146890;27;20065;-80
2023/06/02 05:28:05;;;;;;;19.83;7.05;;;;;;;16.53;69.23;93796.06;5128531;27;20097;-80
2023/06/02 05:30:31;;;;;;;12.48;5.78;;;;;;;16.59;68.13;93797.38;5129043;27;20360;-79
2023/06/02 05:32:56;;;;;;;14.32;6.95;;;;;;;16.67;68.58;93802.88;5147073;27;20320;-79
2023/06/02 05:35:22;;;;;;;19.17;7.05;;;;;;;16.73;67.64;93788.81;5146971;27;20284;-79
2023/06/02 05:37:47;;;;;;;13.85;6.70;;;;;;;16.81;66.68;93793.25;5146520;27;20019;-79
2023/06/02 05:40:13;;;;;;;18.00;7.43;;;;;;;16.89;68.04;93796.81;5146709;27;20358;-78
2023/06/02 05:42:39;;;;;;;15.07;6.70;;;;;;;16.98;67.10;93794.72;5146653;27;20047;-78
2023/06/02 05:45:05;;;;;;;13.27;7.70;;;;;;;17.02;67.13;93782.09;5128191;27;20046;-78
2023/06/02 05:47:31;;;;;;;23.60;7.50;;;;;;;17.05;67.11;93786.75;5146929;27;20071;-80
2023/06/02 05:49:57;;;;;;;18.33;7.93;;;;;;;17.10;67.11;93793.03;5146802;27;20023;-76
2023/06/02 05:52:23;;;;;;;17.65;8.80;;;;;;;17.19;67.91;93797.03;5146848;27;20390;-76
2023/06/02 05:54:48;;;;;;;14.85;8.05;;;;;;;17.19;68.18;93790.88;5128410;27;20051;-77
2023/06/02 05:57:13;;;;;;;17.20;8.68;;;;;;;17.29;68.90;93790.28;5128285;27;20031;-77
2023/06/02 05:59:39;;;;;;;20.48;8.95;;;;;;;17.42;68.85;93802.47;5146616;27;20027;-77
2023/06/02 06:02:06;;;;;;;11.73;7.95;;;;;;;17.53;68.65;93804.59;5146620;27;20034;-77
2023/06/02 06:04:31;;;;;;;16.30;8.48;;;;;;;17.50;68.33;93797.19;5127625;27;20027;-77
2023/06/02 06:06:58;;;;;;;21.58;7.57;;;;;;;17.53;68.13;93809.97;5145752;27;20032;-78
2023/06/02 06:09:24;;;;;;;20.63;7.80;;;;;;;17.57;67.25;93813.50;5128227;27;20039;-78
2023/06/02 06:11:49;;;;;;;18.63;7.53;;;;;;;17.70;67.65;93801.41;5146464;27;20366;-77
2023/06/02 06:14:15;;;;;;;22.98;7.18;;;;;;;17.81;67.17;93804.31;5146269;27;20034;-78
2023/06/02 06:16:41;;;;;;;21.05;6.88;;;;;;;17.94;66.75;93800.28;5146563;27;20030;-77
2023/06/02 06:19:06;;;;;;;21.75;6.72;;;;;;;18.11;65.98;93806.31;5146153;27;20019;-77
2023/06/02 06:21:32;;;;;;;22.38;8.00;;;;;;;18.27;65.23;93804.25;5146327;27;20030;-78
2023/06/02 06:23:57;;;;;;;28.90;8.07;;;;;;;18.43;64.74;93799.50;5127555;27;20042;-78
2023/06/02 06:26:23;;;;;;;16.05;6.40;;;;;;;18.62;64.08;93806.72;5145983;27;20072;-78
2023/06/02 06:28:48;;;;;;;20.20;6.15;;;;;;;18.81;63.16;93803.13;5145857;27;20022;-78
2023/06/02 06:31:14;;;;;;;12.52;7.15;;;;;;;18.77;61.91;93799.56;5145911;27;20099;-77
2023/06/02 06:33:39;;;;;;;16.52;6.28;;;;;;;18.78;62.14;93800.34;5145976;27;20041;-76
2023/06/02 06:36:05;;;;;;;15.25;6.57;;;;;;;18.80;61.25;93819.69;5127496;27;20023;-75
2023/06/02 06:38:30;;;;;;;17.17;6.68;;;;;;;18.78;60.78;93814.59;5145982;27;20027;-76
2023/06/02 06:40:56;;;;;;;16.60;7.40;;;;;;;18.74;60.82;93804.91;5127588;27;20030;-75
2023/06/02 06:43:21;;;;;;;13.48;6.43;;;;;;;18.83;61.14;93802.75;5145754;27;20313;-75
2023/06/02 06:45:47;;;;;;;18.08;6.47;;;;;;;18.88;61.56;93799.72;5145756;27;20023;-76
2023/06/02 06:48:12;;;;;;;20.38;6.07;;;;;;;18.94;61.41;93800.97;5145756;27;20041;-75
2023/06/02 06:50:38;;;;;;;21.35;5.97;;;;;;;19.04;62.15;93803.00;5145737;27;20231;-76
2023/06/02 06:53:06;;;;;;;12.98;6.25;;;;;;;19.16;61.00;93804.69;5145778;27;20011;-76
2023/06/02 06:55:31;;;;;;;21.35;6.82;;;;;;;19.27;60.93;93807.50;5145619;27;20022;-76
2023/06/02 06:57:57;;;;;;;10.73;5.70;;;;;;;19.35;60.77;93806.44;5127059;27;20292;-76
2023/06/02 07:00:25;;;;;;;19.70;6.85;;;;;;;19.45;61.19;93807.72;5145632;27;20255;-76
2023/06/02 07:02:51;;;;;;;15.55;5.05;;;;;;;19.58;60.87;93805.50;5126957;27;20042;-76
2023/06/02 07:05:17;;;;;;;17.17;5.68;;;;;;;19.64;59.04;93796.72;5145360;27;20317;-74
2023/06/02 07:07:43;;;;;;;16.50;5.05;;;;;;;19.65;58.76;93803.66;5144996;27;20027;-75
2023/06/02 07:10:10;;;;;;;21.15;6.60;;;;;;;19.67;59.44;93810.63;5126637;27;20019;-75
2023/06/02 07:12:36;;;;;;;11.95;6.55;;;;;;;19.79;59.33;93802.28;5145196;27;20090;-75
2023/06/02 07:15:02;;;;;;;16.85;5.10;;;;;;;19.92;58.98;93800.06;5145383;27;20310;-78
2023/06/02 07:17:28;;;;;;;14.65;5.70;;;;;;;20.04;58.95;93797.06;5144843;27;20030;-77
2023/06/02 07:19:54;;;;;;;15.07;5.30;;;;;;;20.21;57.36;93804.56;5144853;27;20019;-79
2023/06/02 07:22:21;;;;;;;18.67;6.32;;;;;;;20.32;58.11;93806.56;5144643;27;20080;-78
2023/06/02 07:24:46;;;;;;;15.18;6.15;;;;;;;20.37;57.53;93809.72;5126447;27;20030;-77
2023/06/02 07:27:13;;;;;;;13.00;5.95;;;;;;;20.43;56.03;93815.53;5144924;27;20019;-77
2023/06/02 07:29:38;;;;;;;14.75;5.82;;;;;;;20.47;54.41;93819.03;5144735;27;20023;-78
2023/06/02 07:32:04;;;;;;;18.30;5.60;;;;;;;20.56;54.54;93830.31;5144367;27;20025;-78
2023/06/02 07:34:31;;;;;;;12.38;5.05;;;;;;;20.73;55.82;93825.44;5144414;27;20047;-78
2023/06/02 07:36:57;;;;;;;18.17;5.90;;;;;;;20.87;55.46;93830.91;5144536;27;20037;-78
2023/06/02 07:39:23;;;;;;;10.07;5.25;;;;;;;21.11;55.52;93834.16;5126298;27;20034;-78
2023/06/02 07:41:48;;;;;;;18.77;5.57;;;;;;;21.30;54.92;93827.63;5125844;27;20225;-78
2023/06/02 07:44:14;;;;;;;15.88;5.88;;;;;;;21.45;54.57;93829.25;5144339;27;20053;-78
2023/06/02 07:46:40;;;;;;;18.40;5.30;;;;;;;21.62;53.07;93828.53;5144331;27;20071;-78
2023/06/02 07:49:05;;;;;;;10.77;5.20;;;;;;;21.63;51.59;93832.00;5144292;27;20325;-77
2023/06/02 07:51:31;;;;;;;11.18;5.18;;;;;;;21.69;52.95;93830.47;5144312;27;20305;-77
2023/06/02 07:53:56;;;;;;;17.23;6.32;;;;;;;21.83;52.53;93829.72;5143980;27;20031;-78
2023/06/02 07:56:21;;;;;;;23.17;5.95;;;;;;;21.94;52.42;93832.44;5125965;27;20058;-78
2023/06/02 07:58:47;;;;;;;20.15;6.05;;;;;;;22.07;52.37;93839.06;5125785;27;20140;-78
2023/06/02 08:01:16;;;;;;;26.75;5.75;;;;;;;22.18;52.46;93833.63;5144163;27;20297;-79
2023/06/02 08:03:42;;;;;;;16.63;5.22;;;;;;;22.34;51.64;93827.84;5144045;27;20067;-79
2023/06/02 08:06:07;;;;;;;21.73;6.10;;;;;;;22.47;51.31;93823.59;5144003;27;20023;-78
2023/06/02 08:08:32;;;;;;;25.70;6.00;;;;;;;22.59;50.38;93815.03;5144107;27;20019;-78
2023/06/02 08:10:59;;;;;;;21.23;6.05;;;;;;;22.72;50.11;93822.78;5125625;27;20066;-78
2023/06/02 08:13:24;;;;;;;11.45;6.07;;;;;;;22.80;50.09;93818.88;5125858;27;20073;-77
2023/06/02 08:15:50;;;;;;;13.80;5.88;;;;;;;22.85;48.53;93815.75;5143923;27;20324;-78
2023/06/02 08:18:15;;;;;;;16.75;5.15;;;;;;;22.94;48.42;93807.19;5143855;27;20317;-76
2023/06/02 08:20:43;;;;;;;18.23;5.32;;;;;;;23.01;48.63;93807.16;5125609;27;20027;-78
2023/06/02 08:23:08;;;;;;;13.15;5.50;;;;;;;22.95;47.72;93809.50;5143664;27;20147;-77
2023/06/02 08:25:37;;;;;;;20.77;6.07;;;;;;;22.80;47.75;93808.78;5143746;27;20035;-77
2023/06/02 08:28:09;;;;;;;12.55;4.78;;;;;;;22.73;46.28;93799.88;5143078;27;20046;-76
2023/06/02 08:30:35;;;;;;;;;;;;;;;22.68;45.88;93803.75;5142895;27;20026;-78
2023/06/02 08:33:02;;;;;;;11.75;4.68;;;;;;;22.60;46.15;93789.41;5142039;27;19966;-78
2023/06/02 08:35:29;;;;;;;16.17;5.43;;;;;;;22.66;45.57;93791.75;5140860;27;20019;-78
2023/06/02 08:37:55;;;;;;;16.92;5.18;;;;;;;22.63;45.66;93783.22;5140651;28;20068;-77
2023/06/02 08:40:25;;;;;;;7.82;4.05;;;;;;;22.73;44.08;93784.34;5141816;28;20022;-77
2023/06/02 08:42:51;;;;;;;8.73;4.28;;;;;;;22.67;46.55;93783.19;5142614;28;20019;-78
2023/06/02 08:45:20;;;;;;;8.90;4.28;;;;;;;22.64;44.60;93775.84;5142980;28;20015;-78
2023/06/02 08:47:53;;;;;;;10.43;4.20;;;;;;;22.56;45.41;93777.03;5143580;28;20018;-78
2023/06/02 08:50:23;;;;;;;10.10;4.05;;;;;;;22.56;45.32;93780.50;5141895;28;20023;-77
2023/06/02 08:52:50;;;;;;;5.88;3.70;;;;;;;22.55;43.81;93761.88;5141849;28;20030;-77
2023/06/02 08:55:16;;;;;;;16.42;5.32;;;;;;;22.49;45.74;93756.09;5141928;28;20057;-78
2023/06/02 08:57:42;;;;;;;10.65;4.28;;;;;;;22.30;44.82;93754.56;5141677;28;20083;-77
2023/06/02 09:00:08;;;;;;;18.30;5.60;;;;;;;22.40;45.23;93764.63;5141840;28;20251;-77
2023/06/02 09:02:34;;;;;;;11.02;4.93;;;;;;;22.51;44.72;93752.97;5141919;28;20041;-78
2023/06/02 09:05:00;;;;;;;12.90;4.97;;;;;;;22.63;45.05;93760.69;5124577;28;20101;-78
2023/06/02 09:07:25;;;;;;;11.73;4.65;;;;;;;22.74;42.43;93757.97;5143363;28;20019;-78
2023/06/02 09:09:52;;;;;;;8.85;4.10;;;;;;;22.68;42.32;93746.72;5125031;28;20083;-78
2023/06/02 09:12:20;;;;;;;8.77;3.97;;;;;;;22.63;42.15;93747.09;5143430;28;20031;-78
2023/06/02 09:14:47;;;;;;;11.48;4.05;;;;;;;22.80;42.67;93754.44;5124688;28;20029;-78
2023/06/02 09:17:30;;;;;;;8.15;4.28;;;;;;;23.01;41.98;93748.16;5143283;28;20019;-78
2023/06/02 09:19:58;;;;;;;16.13;4.82;;;;;;;23.15;41.76;93750.06;5143228;28;20194;-77
2023/06/02 09:22:25;;;;;;;12.48;4.20;;;;;;;23.30;41.18;93753.47;5124814;28;20027;-77
2023/06/02 09:24:54;;;;;;;18.52;4.28;;;;;;;23.37;40.13;93748.00;5143134;28;20027;-77
2023/06/02 09:27:20;;;;;;;22.45;4.85;;;;;;;23.26;41.65;93743.78;5124887;28;20019;-77
2023/06/02 09:29:48;;;;;;;13.57;4.32;;;;;;;23.26;42.66;93741.84;5124757;28;20220;-77
2023/06/02 09:32:14;;;;;;;7.25;3.67;;;;;;;23.34;40.59;93743.34;5143310;28;20235;-77
2023/06/02 09:34:40;;;;;;;5.60;3.53;;;;;;;23.38;38.19;93725.06;5124769;28;20094;-77
2023/06/02 09:37:13;;;;;;;4.72;3.15;;;;;;;23.49;37.82;93729.66;5142970;28;20023;-77
2023/06/02 09:39:48;;;;;;;13.48;4.47;;;;;;;23.56;39.75;93722.22;5143884;27;20015;-77
2023/06/02 09:42:15;;;;;;;6.70;3.95;;;;;;;23.57;40.75;93728.44;5146880;27;20011;-78
2023/06/02 09:45:16;;;;;;;10.05;3.95;;;;;;;23.71;41.48;93731.09;5146893;27;20022;-78
2023/06/02 09:47:42;;;;;;;14.18;5.40;;;;;;;23.71;40.95;93728.38;5069022;28;20029;-79
2023/06/02 09:50:10;;;;;;;14.93;4.47;;;;;;;23.74;40.46;93727.56;5111566;27;20037;-76
2023/06/02 09:52:36;;;;;;;14.75;4.93;;;;;;;23.81;41.37;93727.53;5145275;27;20034;-78
2023/06/02 09:55:01;;;;;;;13.57;5.53;;;;;;;23.77;40.07;93726.81;5145569;27;20027;-78
2023/06/02 09:57:28;;;;;;;12.60;4.70;;;;;;;23.91;40.56;93725.13;5126543;27;20023;-78
2023/06/02 09:59:57;;;;;;;11.02;4.82;;;;;;;24.01;39.67;93724.25;5127546;27;20029;-78
2023/06/02 10:02:22;;;;;;;11.55;4.43;;;;;;;24.09;40.31;93717.56;5145310;27;20023;-78
2023/06/02 10:04:48;;;;;;;13.73;4.03;;;;;;;24.11;40.81;93717.94;5144643;27;20046;-78
2023/06/02 10:07:29;;;;;;;12.05;5.25;;;;;;;24.12;41.84;93716.78;5144551;27;20187;-78
2023/06/02 10:10:29;;;;;;;21.95;5.22;;;;;;;24.16;41.38;93712.09;5144361;27;20064;-78
2023/06/02 10:13:16;;;;;;;11.32;4.78;;;;;;;24.27;41.49;93703.81;5144463;27;20015;-78
2023/06/02 10:15:47;;;;;;;16.77;4.53;;;;;;;24.29;41.39;93714.31;5144557;27;20026;-77
2023/06/02 10:18:40;;;;;;;18.27;4.73;;;;;;;24.32;41.52;93708.81;5145510;27;20217;-78
2023/06/02 10:21:11;;;;;;;6.18;4.20;;;;;;;24.38;41.06;93709.13;5145784;27;20574;-78
2023/06/02 10:24:01;;;;;;;11.77;4.40;;;;;;;24.49;41.50;93698.16;5145617;27;20051;-78
2023/06/02 10:26:41;;;;;;;13.88;5.82;;;;;;;24.64;39.41;93691.38;5145927;27;20019;-78
2023/06/02 10:29:08;;;;;;;16.63;4.85;;;;;;;24.72;38.59;93690.09;5145770;27;20011;-77
2023/06/02 10:31:34;;;;;;;8.65;3.97;;;;;;;24.86;36.58;93689.16;5145882;27;20030;-84
2023/06/02 10:34:01;;;;;;;10.13;4.45;;;;;;;24.82;36.95;93694.66;5146304;27;20206;-88
2023/06/02 10:37:00;;;;;;;9.82;4.45;;;;;;;24.71;37.61;93685.84;5145722;27;20343;-79
2023/06/02 10:39:35;;;;;;;7.70;3.50;;;;;;;24.86;39.50;93677.50;5127169;27;20187;-78
2023/06/02 10:42:06;;;;;;;10.18;4.10;;;;;;;24.97;38.01;93683.56;5144356;27;20023;-77
2023/06/02 10:44:32;;;;;;;17.40;4.40;;;;;;;25.21;39.36;93677.03;5145520;27;20217;-80
2023/06/02 10:47:19;;;;;;;7.25;4.20;;;;;;;25.48;38.10;93670.03;5127304;27;20033;-79
2023/06/02 10:49:55;;;;;;;12.38;4.60;;;;;;;25.68;37.55;93662.72;5144152;27;20087;-76
2023/06/02 10:52:21;;;;;;;8.18;3.80;;;;;;;25.77;34.16;93656.75;5143618;27;20069;-76
2023/06/02 10:55:08;;;;;;;8.63;3.83;;;;;;;25.74;33.72;93663.78;5144860;27;20027;-77
2023/06/02 10:57:52;;;;;;;12.93;4.07;;;;;;;25.64;33.44;93664.72;5143388;27;20055;-76
2023/06/02 11:00:36;;;;;;;9.00;3.25;;;;;;;25.57;33.19;93662.13;5144669;27;20027;-76
2023/06/02 11:03:03;;;;;;;7.53;4.28;;;;;;;25.53;33.44;93662.19;5145120;27;20393;-76
2023/06/02 11:05:30;;;;;;;11.30;3.97;;;;;;;25.57;36.88;93660.16;5144847;27;20015;-76
2023/06/02 11:08:11;;;;;;;9.77;3.88;;;;;;;25.76;35.91;93655.94;5145041;27;20208;-76
2023/06/02 11:10:58;;;;;;;14.25;3.95;;;;;;;26.01;36.42;93655.56;5145018;27;20027;-76
2023/06/02 11:13:25;;;;;;;9.98;3.85;;;;;;;26.22;35.08;93654.41;5144701;27;20070;-76
2023/06/02 11:15:54;;;;;;;11.38;4.15;;;;;;;26.37;34.62;93649.44;5143911;27;20093;-76
2023/06/02 11:18:22;;;;;;;7.75;4.15;;;;;;;26.51;35.47;93664.81;5144469;27;20233;-76
2023/06/02 11:20:56;;;;;;;11.77;3.92;;;;;;;26.49;33.79;93659.00;5144505;27;20269;-76
2023/06/02 11:23:22;;;;;;;15.35;5.60;;;;;;;26.64;34.92;93645.84;5144266;27;20233;-76
2023/06/02 11:25:49;;;;;;;10.10;3.78;;;;;;;26.61;34.00;93646.69;5144627;27;20253;-76
2023/06/02 11:28:22;;;;;;;9.80;3.55;;;;;;;26.64;34.41;93645.84;5144758;27;20098;-76